createdAt,value
2017-11-26T00:01:01.017Z,100854.87
2017-11-26T00:03:28.503Z,100857.67
2017-11-26T00:05:55.979Z,100863.81
2017-11-26T00:08:23.812Z,100866.39
2017-11-26T00:10:51.331Z,100871.97
2017-11-26T00:13:18.875Z,100883.42
2017-11-26T00:15:46.336Z,100886.66
2017-11-26T00:18:13.779Z,100886.48
2017-11-26T00:20:41.256Z,100886.02
2017-11-26T00:23:08.731Z,100887.54
2017-11-26T00:25:36.220Z,100889.53
2017-11-26T00:28:03.655Z,100886.92
2017-11-26T00:30:31.228Z,100891.19
2017-11-26T00:32:58.742Z,100891.41
2017-11-26T00:35:26.219Z,100883.16
2017-11-26T00:37:53.684Z,100884.31
2017-11-26T00:40:21.130Z,100880.38
2017-11-26T00:42:48.611Z,100890.40
2017-11-26T00:45:16.112Z,100891.00
2017-11-26T00:47:43.629Z,100883.67
2017-11-26T00:50:11.068Z,100891.63
2017-11-26T00:52:38.678Z,100888.82
2017-11-26T00:55:06.203Z,100895.05
2017-11-26T00:57:33.670Z,100879.33
2017-11-26T01:00:01.116Z,100889.44
2017-11-26T01:02:28.615Z,100886.61
2017-11-26T01:04:56.071Z,100880.41
2017-11-26T01:07:23.543Z,100878.64
2017-11-26T01:09:50.989Z,100887.24
2017-11-26T01:12:18.451Z,100885.75
2017-11-26T01:14:45.912Z,100882.59
2017-11-26T01:17:13.356Z,100896.25
2017-11-26T01:19:40.836Z,100900.84
2017-11-26T01:22:08.279Z,100905.94
2017-11-26T01:24:35.741Z,100916.59
2017-11-26T01:27:03.197Z,100917.52
2017-11-26T01:29:30.694Z,100912.86
2017-11-26T01:31:58.154Z,100902.06
2017-11-26T01:34:25.623Z,100906.71
2017-11-26T01:36:53.069Z,100916.16
2017-11-26T01:39:20.540Z,100911.58
2017-11-26T01:41:48.024Z,100917.00
2017-11-26T01:44:15.488Z,100916.66
2017-11-26T01:46:42.937Z,100912.86
2017-11-26T01:49:10.418Z,100910.39
2017-11-26T01:51:37.869Z,100898.98
2017-11-26T01:54:05.343Z,100905.11
2017-11-26T01:56:32.868Z,100903.00
2017-11-26T01:59:00.352Z,100901.36
2017-11-26T02:01:27.914Z,100898.69
2017-11-26T02:03:59.095Z,100903.69
2017-11-26T02:06:26.640Z,100903.04
2017-11-26T02:08:54.096Z,100903.49
2017-11-26T02:11:21.560Z,100904.55
2017-11-26T02:13:49.023Z,100901.93
2017-11-26T02:16:16.492Z,100903.62
2017-11-26T02:18:43.945Z,100907.96
2017-11-26T02:21:11.407Z,100923.40
2017-11-26T02:23:38.868Z,100915.88
2017-11-26T02:26:06.356Z,100927.80
2017-11-26T02:28:33.848Z,100925.96
2017-11-26T02:31:01.312Z,100919.34
2017-11-26T02:33:40.607Z,100918.09
2017-11-26T02:36:16.878Z,100922.45
2017-11-26T02:38:44.331Z,100922.48
2017-11-26T02:41:11.798Z,100929.88
2017-11-26T02:43:39.239Z,100928.11
2017-11-26T02:46:06.783Z,100932.05
2017-11-26T02:48:34.228Z,100934.42
2017-11-26T02:51:01.723Z,100934.38
2017-11-26T02:53:29.177Z,100938.32
2017-11-26T02:55:56.619Z,100937.48
2017-11-26T02:58:24.111Z,100946.70
2017-11-26T03:00:51.553Z,100940.52
2017-11-26T03:03:19.043Z,100936.66
2017-11-26T03:05:46.533Z,100937.59
2017-11-26T03:08:13.997Z,100946.64
2017-11-26T03:10:41.452Z,100942.84
2017-11-26T03:13:08.916Z,100947.22
2017-11-26T03:15:36.368Z,100949.88
2017-11-26T03:18:03.879Z,100954.90
2017-11-26T03:20:31.332Z,100960.92
2017-11-26T03:22:58.841Z,100961.80
2017-11-26T03:25:26.289Z,100968.30
2017-11-26T03:27:53.773Z,100962.69
2017-11-26T03:30:21.230Z,100959.20
2017-11-26T03:32:48.683Z,100954.44
2017-11-26T03:35:16.149Z,100958.30
2017-11-26T03:37:43.600Z,100953.12
2017-11-26T03:40:11.081Z,100957.41
2017-11-26T03:42:38.545Z,100955.73
2017-11-26T03:45:06.032Z,100954.77
2017-11-26T03:47:33.485Z,100953.88
2017-11-26T03:50:00.957Z,100955.64
2017-11-26T03:52:28.410Z,100960.08
2017-11-26T03:54:55.880Z,100960.07
2017-11-26T03:57:23.322Z,100963.84
2017-11-26T03:59:50.792Z,100959.27
2017-11-26T04:02:18.244Z,100961.36
2017-11-26T04:04:45.823Z,100963.56
2017-11-26T04:07:13.263Z,100965.72
2017-11-26T04:09:40.744Z,100953.78
2017-11-26T04:12:08.269Z,100953.36
2017-11-26T04:14:35.719Z,100957.66
2017-11-26T04:17:03.189Z,100961.14
2017-11-26T04:19:30.637Z,100957.20
2017-11-26T04:21:58.146Z,100956.66
2017-11-26T04:24:25.601Z,100953.98
2017-11-26T04:26:53.064Z,100954.41
2017-11-26T04:29:20.529Z,100945.62
2017-11-26T04:31:47.999Z,100955.72
2017-11-26T04:34:15.506Z,100954.38
2017-11-26T04:36:42.981Z,100953.88
2017-11-26T04:39:10.445Z,100947.30
2017-11-26T04:41:37.931Z,100950.83
2017-11-26T04:44:05.380Z,100952.92
2017-11-26T04:46:32.885Z,100953.64
2017-11-26T04:49:00.385Z,100944.33
2017-11-26T04:51:27.837Z,100944.30
2017-11-26T04:53:55.304Z,100939.92
2017-11-26T04:56:22.790Z,100943.50
2017-11-26T04:58:50.290Z,100948.41
2017-11-26T05:01:17.761Z,100950.20
2017-11-26T05:03:45.221Z,100962.12
2017-11-26T05:06:12.679Z,100960.34
2017-11-26T05:08:40.165Z,100958.52
2017-11-26T05:11:07.684Z,100966.50
2017-11-26T05:13:35.135Z,100965.52
2017-11-26T05:16:02.648Z,100963.76
2017-11-26T05:18:30.117Z,100965.61
2017-11-26T05:20:57.588Z,100964.61
2017-11-26T05:23:25.119Z,100966.42
2017-11-26T05:25:52.643Z,100975.16
2017-11-26T05:28:20.088Z,100970.17
2017-11-26T05:30:47.551Z,100973.30
2017-11-26T05:33:14.993Z,100980.73
2017-11-26T05:35:42.505Z,100982.50
2017-11-26T05:38:09.955Z,100987.39
2017-11-26T05:40:37.433Z,100995.27
2017-11-26T05:43:04.879Z,100995.95
2017-11-26T05:45:32.335Z,100995.64
2017-11-26T05:47:59.805Z,101003.75
2017-11-26T05:50:27.248Z,101002.91
2017-11-26T05:52:54.707Z,101007.31
2017-11-26T05:55:22.165Z,101010.37
2017-11-26T05:57:49.633Z,101013.96
2017-11-26T06:00:17.080Z,101018.70
2017-11-26T06:02:44.624Z,101016.11
2017-11-26T06:05:12.085Z,101023.49
2017-11-26T06:07:39.645Z,101018.22
2017-11-26T06:10:07.121Z,101019.56
2017-11-26T06:12:34.568Z,101011.99
2017-11-26T06:15:02.037Z,101026.09
2017-11-26T06:17:29.488Z,101027.90
2017-11-26T06:19:56.979Z,101020.89
2017-11-26T06:22:24.437Z,101027.47
2017-11-26T06:24:51.908Z,101027.58
2017-11-26T06:27:19.362Z,101028.00
2017-11-26T06:29:46.834Z,101019.55
2017-11-26T06:32:14.313Z,101026.62
2017-11-26T06:34:41.777Z,101030.91
2017-11-26T06:37:09.223Z,101042.34
2017-11-26T06:39:36.777Z,101041.44
2017-11-26T06:42:04.256Z,101049.77
2017-11-26T06:44:31.706Z,101051.13
2017-11-26T06:46:59.183Z,101051.24
2017-11-26T06:49:26.640Z,101050.44
2017-11-26T06:51:54.121Z,101053.63
2017-11-26T06:54:21.573Z,101055.34
2017-11-26T06:56:49.051Z,101049.61
2017-11-26T06:59:16.524Z,101049.20
2017-11-26T07:01:43.993Z,101046.13
2017-11-26T07:04:11.457Z,101056.27
2017-11-26T07:06:38.945Z,101049.69
2017-11-26T07:09:06.392Z,101054.89
2017-11-26T07:11:33.862Z,101053.78
2017-11-26T07:14:01.384Z,101052.02
2017-11-26T07:16:28.857Z,101052.98
2017-11-26T07:18:56.353Z,101063.09
2017-11-26T07:21:23.797Z,101068.38
2017-11-26T07:23:51.328Z,101063.64
2017-11-26T07:26:18.865Z,101060.20
2017-11-26T07:28:46.423Z,101067.27
2017-11-26T07:31:13.988Z,101068.51
2017-11-26T07:33:41.453Z,101074.75
2017-11-26T07:36:08.996Z,101069.38
2017-11-26T07:38:36.506Z,101081.42
2017-11-26T07:41:03.961Z,101077.05
2017-11-26T07:43:31.470Z,101083.17
2017-11-26T07:45:59.023Z,101093.32
2017-11-26T07:48:26.472Z,101101.97
2017-11-26T07:50:54.048Z,101101.09
2017-11-26T07:53:21.504Z,101103.38
2017-11-26T07:55:48.972Z,101101.73
2017-11-26T07:58:16.425Z,101100.87
2017-11-26T08:00:43.892Z,101092.46
2017-11-26T08:03:11.541Z,101101.41
2017-11-26T08:05:39.036Z,101097.49
2017-11-26T08:08:06.531Z,101103.75
2017-11-26T08:10:33.988Z,101104.58
2017-11-26T08:13:01.458Z,101102.94
2017-11-26T08:15:29.012Z,101100.23
2017-11-26T08:17:56.653Z,101105.39
2017-11-26T08:20:24.134Z,101103.80
2017-11-26T08:22:51.584Z,101104.36
2017-11-26T08:25:19.048Z,101105.22
2017-11-26T08:27:46.513Z,101103.38
2017-11-26T08:30:13.959Z,101100.41
2017-11-26T08:32:41.437Z,101095.98
2017-11-26T08:35:08.912Z,101104.27
2017-11-26T08:37:36.535Z,101097.67
2017-11-26T08:40:03.988Z,101093.35
2017-11-26T08:42:31.503Z,101097.66
2017-11-26T08:44:58.957Z,101098.78
2017-11-26T08:47:26.422Z,101099.23
2017-11-26T08:49:53.873Z,101099.66
2017-11-26T08:52:21.347Z,101093.39
2017-11-26T08:54:48.798Z,101108.02
2017-11-26T08:57:16.249Z,101106.19
2017-11-26T08:59:43.708Z,101100.48
2017-11-26T09:02:11.256Z,101104.05
2017-11-26T09:04:38.719Z,101117.63
2017-11-26T09:07:07.034Z,101118.06
2017-11-26T09:09:34.479Z,101112.98
2017-11-26T09:12:01.929Z,101116.38
2017-11-26T09:14:29.433Z,101118.20
2017-11-26T09:16:56.917Z,101120.81
2017-11-26T09:19:24.390Z,101122.06
2017-11-26T09:21:51.838Z,101128.76
2017-11-26T09:24:19.316Z,101126.11
2017-11-26T09:26:46.790Z,101128.80
2017-11-26T09:29:14.233Z,101123.90
2017-11-26T09:31:41.711Z,101125.15
2017-11-26T09:34:09.260Z,101125.66
2017-11-26T09:36:36.722Z,101117.91
2017-11-26T09:39:04.173Z,101123.03
2017-11-26T09:41:31.644Z,101122.65
2017-11-26T09:43:59.093Z,101121.90
2017-11-26T09:46:26.597Z,101118.25
2017-11-26T09:48:54.040Z,101121.86
2017-11-26T09:51:21.521Z,101124.98
2017-11-26T09:53:48.990Z,101121.91
2017-11-26T09:56:16.527Z,101122.78
2017-11-26T09:58:44.013Z,101121.50
2017-11-26T10:01:11.468Z,101120.63
2017-11-26T10:03:38.932Z,101124.58
2017-11-26T10:06:06.371Z,101125.49
2017-11-26T10:08:33.840Z,101129.89
2017-11-26T10:11:01.283Z,101129.03
2017-11-26T10:13:28.749Z,101126.84
2017-11-26T10:15:56.198Z,101125.52
2017-11-26T10:18:23.685Z,101128.63
2017-11-26T10:20:51.141Z,101128.57
2017-11-26T10:23:18.775Z,101125.93
2017-11-26T10:25:46.245Z,101122.88
2017-11-26T10:28:13.692Z,101131.23
2017-11-26T10:30:41.173Z,101132.97
2017-11-26T10:33:08.741Z,101133.85
2017-11-26T10:35:36.214Z,101128.16
2017-11-26T10:38:03.670Z,101131.66
2017-11-26T10:40:31.160Z,101136.90
2017-11-26T10:42:58.657Z,101134.30
2017-11-26T10:45:26.120Z,101138.72
2017-11-26T10:47:53.604Z,101141.33
2017-11-26T10:50:21.075Z,101143.58
2017-11-26T10:52:48.690Z,101130.80
2017-11-26T10:55:16.162Z,101134.32
2017-11-26T10:57:43.645Z,101133.41
2017-11-26T11:00:11.100Z,101137.41
2017-11-26T11:02:38.568Z,101136.94
2017-11-26T11:05:06.133Z,101130.80
2017-11-26T11:07:33.735Z,101140.04
2017-11-26T11:10:01.199Z,101142.25
2017-11-26T11:12:28.665Z,101135.61
2017-11-26T11:14:56.137Z,101143.97
2017-11-26T11:17:23.625Z,101147.55
2017-11-26T11:19:51.077Z,101143.59
2017-11-26T11:22:18.584Z,101152.34
2017-11-26T11:24:46.045Z,101151.02
2017-11-26T11:27:13.523Z,101156.73
2017-11-26T11:29:41.043Z,101156.70
2017-11-26T11:32:08.518Z,101158.09
2017-11-26T11:34:36.027Z,101157.61
2017-11-26T11:37:03.473Z,101168.14
2017-11-26T11:39:30.961Z,101169.05
2017-11-26T11:41:58.412Z,101165.06
2017-11-26T11:44:25.893Z,101163.73
2017-11-26T11:46:53.347Z,101160.22
2017-11-26T11:49:20.809Z,101158.45
2017-11-26T11:51:48.272Z,101164.61
2017-11-26T11:54:15.763Z,101167.70
2017-11-26T11:56:43.217Z,101169.46
2017-11-26T11:59:10.675Z,101173.45
2017-11-26T12:01:38.145Z,101168.62
2017-11-26T12:04:05.611Z,101166.41
2017-11-26T12:06:33.083Z,101166.42
2017-11-26T12:09:00.533Z,101170.81
2017-11-26T12:11:28.008Z,101164.62
2017-11-26T12:13:55.454Z,101161.94
2017-11-26T12:16:22.937Z,101169.45
2017-11-26T12:18:50.404Z,101171.22
2017-11-26T12:21:17.856Z,101172.09
2017-11-26T12:23:45.364Z,101171.22
2017-11-26T12:26:12.864Z,101167.73
2017-11-26T12:28:40.353Z,101167.25
2017-11-26T12:31:07.815Z,101168.62
2017-11-26T12:33:35.286Z,101172.05
2017-11-26T12:36:02.740Z,101170.73
2017-11-26T12:38:30.232Z,101172.53
2017-11-26T12:40:57.683Z,101172.61
2017-11-26T12:43:25.161Z,101168.17
2017-11-26T12:45:52.613Z,101168.14
2017-11-26T12:48:20.165Z,101173.45
2017-11-26T12:50:47.633Z,101169.02
2017-11-26T12:53:15.101Z,101175.17
2017-11-26T12:55:42.584Z,101172.58
2017-11-26T12:58:10.030Z,101165.94
2017-11-26T13:00:37.524Z,101174.30
2017-11-26T13:03:04.970Z,101166.45
2017-11-26T13:05:32.454Z,101174.81
2017-11-26T13:07:59.900Z,101173.45
2017-11-26T13:10:27.388Z,101173.52
2017-11-26T13:12:54.841Z,101172.58
2017-11-26T13:15:22.308Z,101178.30
2017-11-26T13:17:49.756Z,101171.30
2017-11-26T13:20:17.233Z,101170.81
2017-11-26T13:22:44.677Z,101172.17
2017-11-26T13:25:12.654Z,101179.22
2017-11-26T13:27:40.180Z,101175.22
2017-11-26T13:30:07.628Z,101179.18
2017-11-26T13:32:35.095Z,101178.33
2017-11-26T13:35:02.542Z,101173.94
2017-11-26T13:37:30.009Z,101176.98
2017-11-26T13:39:57.473Z,101172.64
2017-11-26T13:42:24.948Z,101181.93
2017-11-26T13:44:52.518Z,101173.52
2017-11-26T13:47:20.045Z,101178.81
2017-11-26T13:49:47.524Z,101186.30
2017-11-26T13:52:15.010Z,101185.86
2017-11-26T13:54:42.461Z,101189.39
2017-11-26T13:57:09.911Z,101184.52
2017-11-26T13:59:37.414Z,101181.47
2017-11-26T14:02:04.880Z,101185.87
2017-11-26T14:04:32.361Z,101192.45
2017-11-26T14:06:59.809Z,101181.00
2017-11-26T14:09:27.276Z,101186.31
2017-11-26T14:11:54.726Z,101195.55
2017-11-26T14:14:22.199Z,101187.19
2017-11-26T14:16:49.644Z,101196.02
2017-11-26T14:19:17.193Z,101191.61
2017-11-26T14:21:44.759Z,101198.22
2017-11-26T14:24:12.205Z,101191.17
2017-11-26T14:26:39.726Z,101191.60
2017-11-26T14:29:07.188Z,101192.06
2017-11-26T14:31:34.659Z,101197.77
2017-11-26T14:34:02.148Z,101191.57
2017-11-26T14:36:29.619Z,101188.95
2017-11-26T14:38:57.073Z,101186.75
2017-11-26T14:41:24.547Z,101186.73
2017-11-26T14:43:52.001Z,101183.66
2017-11-26T14:46:19.485Z,101188.92
2017-11-26T14:48:46.998Z,101190.25
2017-11-26T14:51:14.441Z,101190.19
2017-11-26T14:53:41.920Z,101197.70
2017-11-26T14:56:09.392Z,101196.78
2017-11-26T14:58:36.856Z,101201.22
2017-11-26T15:01:04.339Z,101199.86
2017-11-26T15:03:31.911Z,101196.78
2017-11-26T15:05:59.384Z,101199.91
2017-11-26T15:08:26.864Z,101209.45
2017-11-26T15:10:54.365Z,101210.75
2017-11-26T15:13:21.836Z,101214.28
2017-11-26T15:15:49.288Z,101217.73
2017-11-26T15:18:16.766Z,101215.95
2017-11-26T15:20:44.229Z,101220.81
2017-11-26T15:23:11.682Z,101220.00
2017-11-26T15:25:39.154Z,101228.80
2017-11-26T15:28:06.616Z,101227.47
2017-11-26T15:30:34.088Z,101238.41
2017-11-26T15:33:01.532Z,101230.98
2017-11-26T15:35:29.052Z,101238.82
2017-11-26T15:37:56.499Z,101238.83
2017-11-26T15:40:24.069Z,101239.60
2017-11-26T15:42:51.519Z,101247.08
2017-11-26T15:45:18.989Z,101248.08
2017-11-26T15:47:46.433Z,101246.66
2017-11-26T15:50:13.899Z,101243.24
2017-11-26T15:52:41.448Z,101245.77
2017-11-26T15:55:09.028Z,101257.19
2017-11-26T15:57:36.513Z,101259.84
2017-11-26T16:00:03.961Z,101263.79
2017-11-26T16:02:31.448Z,101263.32
2017-11-26T16:04:58.918Z,101263.72
2017-11-26T16:07:26.391Z,101267.72
2017-11-26T16:09:53.904Z,101269.16
2017-11-26T16:12:21.369Z,101273.89
2017-11-26T16:14:48.869Z,101276.08
2017-11-26T16:17:16.336Z,101281.05
2017-11-26T16:19:43.775Z,101274.45
2017-11-26T16:22:11.272Z,101274.70
2017-11-26T16:24:38.792Z,101283.45
2017-11-26T16:27:06.253Z,101275.94
2017-11-26T16:29:33.711Z,101279.95
2017-11-26T16:32:01.159Z,101288.68
2017-11-26T16:34:28.631Z,101283.89
2017-11-26T16:36:56.176Z,101282.59
2017-11-26T16:39:23.637Z,101282.16
2017-11-26T16:41:51.105Z,101285.12
2017-11-26T16:44:18.577Z,101288.62
2017-11-26T16:46:46.033Z,101291.75
2017-11-26T16:49:13.514Z,101283.36
2017-11-26T16:51:41.076Z,101292.14
2017-11-26T16:54:08.557Z,101281.50
2017-11-26T16:56:36.029Z,101283.61
2017-11-26T16:59:03.477Z,101283.59
2017-11-26T17:01:30.954Z,101284.13
2017-11-26T17:03:58.392Z,101285.05
2017-11-26T17:06:25.873Z,101285.41
2017-11-26T17:08:53.371Z,101288.81
2017-11-26T17:11:20.827Z,101295.03
2017-11-26T17:13:49.256Z,101292.90
2017-11-26T17:16:16.721Z,101300.74
2017-11-26T17:18:44.168Z,101298.62
2017-11-26T17:21:11.647Z,101305.07
2017-11-26T17:23:39.209Z,101303.38
2017-11-26T17:26:06.648Z,101314.30
2017-11-26T17:28:34.203Z,101307.71
2017-11-26T17:31:01.656Z,101309.47
2017-11-26T17:33:29.126Z,101311.23
2017-11-26T17:35:56.573Z,101314.21
2017-11-26T17:38:24.045Z,101313.80
2017-11-26T17:40:51.489Z,101320.37
2017-11-26T17:43:18.980Z,101320.92
2017-11-26T17:45:46.435Z,101322.19
2017-11-26T17:48:13.957Z,101316.80
2017-11-26T17:50:41.460Z,101319.48
2017-11-26T17:53:08.942Z,101323.84
2017-11-26T17:55:36.401Z,101316.95
2017-11-26T17:58:03.844Z,101317.28
2017-11-26T18:00:31.321Z,101317.67
2017-11-26T18:02:58.881Z,101320.83
2017-11-26T18:05:26.358Z,101319.01
2017-11-26T18:07:53.891Z,101317.22
2017-11-26T18:10:21.424Z,101320.01
2017-11-26T18:12:48.881Z,101330.94
2017-11-26T18:15:16.332Z,101331.34
2017-11-26T18:17:43.841Z,101332.61
2017-11-26T18:20:11.290Z,101342.78
2017-11-26T18:22:38.768Z,101348.48
2017-11-26T18:25:06.236Z,101349.38
2017-11-26T18:27:33.712Z,101344.03
2017-11-26T18:30:01.157Z,101348.87
2017-11-26T18:32:28.672Z,101349.20
2017-11-26T18:34:56.131Z,101358.52
2017-11-26T18:37:23.698Z,101352.80
2017-11-26T18:39:51.149Z,101354.94
2017-11-26T18:42:18.708Z,101346.94
2017-11-26T18:44:46.253Z,101347.56
2017-11-26T18:47:13.730Z,101344.95
2017-11-26T18:49:41.196Z,101347.03
2017-11-26T18:52:08.659Z,101347.45
2017-11-26T18:54:36.176Z,101355.37
2017-11-26T18:57:03.620Z,101350.03
2017-11-26T18:59:31.154Z,101352.01
2017-11-26T19:01:58.624Z,101363.27
2017-11-26T19:04:26.109Z,101362.78
2017-11-26T19:06:53.586Z,101351.13
2017-11-26T19:09:21.056Z,101348.28
2017-11-26T19:11:48.630Z,101363.19
2017-11-26T19:14:16.263Z,101368.36
2017-11-26T19:16:43.713Z,101361.06
2017-11-26T19:19:11.178Z,101368.61
2017-11-26T19:21:38.652Z,101367.72
2017-11-26T19:24:06.101Z,101371.30
2017-11-26T19:26:33.568Z,101375.20
2017-11-26T19:29:01.026Z,101377.18
2017-11-26T19:31:28.541Z,101383.02
2017-11-26T19:33:56.003Z,101387.08
2017-11-26T19:36:23.499Z,101388.24
2017-11-26T19:38:50.950Z,101379.83
2017-11-26T19:41:20.235Z,101389.02
2017-11-26T19:43:47.709Z,101393.81
2017-11-26T19:46:15.424Z,101396.49
2017-11-26T19:48:43.017Z,101395.64
2017-11-26T19:51:10.539Z,101400.31
2017-11-26T19:53:38.073Z,101395.20
2017-11-26T19:56:05.529Z,101398.03
2017-11-26T19:58:33.213Z,101394.47
2017-11-26T20:01:00.661Z,101391.36
2017-11-26T20:03:29.058Z,101394.86
2017-11-26T20:05:56.762Z,101396.19
2017-11-26T20:08:24.476Z,101395.75
2017-11-26T20:10:52.104Z,101391.83
2017-11-26T20:13:19.589Z,101391.91
2017-11-26T20:15:47.033Z,101399.40
2017-11-26T20:18:14.594Z,101391.84
2017-11-26T20:20:42.073Z,101389.85
2017-11-26T20:23:09.548Z,101387.14
2017-11-26T20:25:36.994Z,101384.06
2017-11-26T20:28:05.646Z,101386.66
2017-11-26T20:30:33.097Z,101380.09
2017-11-26T20:33:00.603Z,101387.97
2017-11-26T20:35:28.101Z,101391.93
2017-11-26T20:37:55.553Z,101391.93
2017-11-26T20:40:23.028Z,101394.52
2017-11-26T20:42:50.480Z,101394.23
2017-11-26T20:45:17.988Z,101392.03
2017-11-26T20:47:45.434Z,101398.05
2017-11-26T20:50:12.915Z,101393.30
2017-11-26T20:52:40.368Z,101394.66
2017-11-26T20:55:07.853Z,101392.27
2017-11-26T20:57:35.325Z,101390.77
2017-11-26T21:00:02.829Z,101396.05
2017-11-26T21:02:30.285Z,101403.09
2017-11-26T21:04:57.757Z,101403.54
2017-11-26T21:07:25.211Z,101402.75
2017-11-26T21:09:52.663Z,101399.72
2017-11-26T21:12:20.265Z,101397.82
2017-11-26T21:14:47.722Z,101392.98
2017-11-26T21:17:15.193Z,101393.50
2017-11-26T21:19:42.641Z,101387.25
2017-11-26T21:22:10.188Z,101383.32
2017-11-26T21:24:37.645Z,101379.87
2017-11-26T21:27:05.116Z,101378.48
2017-11-26T21:29:32.675Z,101376.73
2017-11-26T21:32:00.148Z,101382.44
2017-11-26T21:34:27.624Z,101382.83
2017-11-26T21:36:55.084Z,101378.92
2017-11-26T21:39:22.528Z,101379.83
2017-11-26T21:41:50.017Z,101382.02
2017-11-26T21:44:17.464Z,101380.20
2017-11-26T21:46:44.916Z,101379.02
2017-11-26T21:49:12.392Z,101370.59
2017-11-26T21:51:39.938Z,101373.66
2017-11-26T21:54:07.407Z,101368.41
2017-11-26T21:56:34.861Z,101368.03
2017-11-26T21:59:02.363Z,101366.13
2017-11-26T22:01:29.803Z,101371.59
2017-11-26T22:03:57.267Z,101372.66
2017-11-26T22:06:24.715Z,101369.19
2017-11-26T22:08:52.242Z,101368.31
2017-11-26T22:11:19.712Z,101376.75
2017-11-26T22:13:47.183Z,101378.50
2017-11-26T22:16:14.652Z,101377.13
2017-11-26T22:18:42.101Z,101378.02
2017-11-26T22:21:09.572Z,101385.10
2017-11-26T22:23:37.025Z,101386.91
2017-11-26T22:26:04.519Z,101385.17
2017-11-26T22:28:31.968Z,101385.63
2017-11-26T22:30:59.542Z,101386.05
2017-11-26T22:33:26.994Z,101393.55
2017-11-26T22:35:54.473Z,101392.23
2017-11-26T22:38:21.933Z,101402.38
2017-11-26T22:40:49.409Z,101395.42
2017-11-26T22:43:16.852Z,101396.34
2017-11-26T22:45:44.378Z,101395.87
2017-11-26T22:48:11.839Z,101392.76
2017-11-26T22:50:39.324Z,101392.23
2017-11-26T22:53:06.777Z,101390.79
2017-11-26T22:55:34.261Z,101387.28
2017-11-26T22:58:01.725Z,101392.14
2017-11-26T23:00:29.177Z,101392.13
2017-11-26T23:02:56.674Z,101392.37
2017-11-26T23:05:24.122Z,101395.41
2017-11-26T23:07:51.586Z,101389.19
2017-11-26T23:10:19.029Z,101388.31
2017-11-26T23:12:46.496Z,101391.69
2017-11-26T23:15:13.946Z,101382.01
2017-11-26T23:17:41.425Z,101373.72
2017-11-26T23:20:08.865Z,101375.55
2017-11-26T23:22:36.337Z,101374.56
2017-11-26T23:25:03.786Z,101371.43
2017-11-26T23:27:31.266Z,101372.28
2017-11-26T23:29:58.705Z,101371.33
2017-11-26T23:32:26.193Z,101371.78
2017-11-26T23:34:53.635Z,101367.89
2017-11-26T23:37:21.175Z,101367.39
2017-11-26T23:39:48.670Z,101369.20
2017-11-26T23:42:16.120Z,101363.00
2017-11-26T23:44:43.594Z,101364.06
2017-11-26T23:47:11.048Z,101363.12
2017-11-26T23:49:38.527Z,101362.68
2017-11-26T23:52:05.976Z,101363.48
2017-11-26T23:54:33.445Z,101360.00
2017-11-26T23:57:00.901Z,101358.23
2017-11-26T23:59:28.380Z,101359.91
